createdAt,value
2023-05-13T00:00:58.343Z,779.00
2023-05-13T00:01:58.429Z,780.00
2023-05-13T00:02:58.622Z,779.00
2023-05-13T00:03:58.610Z,778.00
2023-05-13T00:04:58.685Z,773.00
2023-05-13T00:05:58.808Z,773.00
2023-05-13T00:06:58.865Z,774.00
2023-05-13T00:07:58.967Z,775.00
2023-05-13T00:08:59.044Z,775.00
2023-05-13T00:09:59.146Z,777.00
2023-05-13T00:10:59.246Z,776.00
2023-05-13T00:11:59.318Z,773.00
2023-05-13T00:12:59.411Z,772.00
2023-05-13T00:13:59.515Z,770.00
2023-05-13T00:14:59.601Z,769.00
2023-05-13T00:15:59.717Z,773.00
2023-05-13T00:16:59.780Z,774.00
2023-05-13T00:17:59.931Z,772.00
2023-05-13T00:19:00.016Z,775.00
2023-05-13T00:20:00.047Z,776.00
2023-05-13T00:21:00.129Z,777.00
2023-05-13T00:22:00.222Z,778.00
2023-05-13T00:23:00.312Z,779.00
2023-05-13T00:24:00.419Z,779.00
2023-05-13T00:25:00.495Z,777.00
2023-05-13T00:26:00.583Z,777.00
2023-05-13T00:27:00.691Z,777.00
2023-05-13T00:28:00.766Z,777.00
2023-05-13T00:29:00.842Z,774.00
2023-05-13T00:30:01.074Z,774.00
2023-05-13T00:31:01.012Z,773.00
2023-05-13T00:32:01.169Z,771.00
2023-05-13T00:33:01.240Z,769.00
2023-05-13T00:34:01.295Z,767.00
2023-05-13T00:35:01.411Z,763.00
2023-05-13T00:36:01.466Z,765.00
2023-05-13T00:37:01.560Z,765.00
2023-05-13T00:38:01.673Z,762.00
2023-05-13T00:39:01.741Z,763.00
2023-05-13T00:40:01.845Z,762.00
2023-05-13T00:41:01.919Z,759.00
2023-05-13T00:42:02.015Z,758.00
2023-05-13T00:43:02.130Z,759.00
2023-05-13T00:44:02.196Z,764.00
2023-05-13T00:45:02.295Z,764.00
2023-05-13T00:46:02.396Z,762.00
2023-05-13T00:47:02.471Z,763.00
2023-05-13T00:48:02.593Z,763.00
2023-05-13T00:49:02.649Z,764.00
2023-05-13T00:50:02.736Z,763.00
2023-05-13T00:51:02.828Z,764.00
2023-05-13T00:52:02.920Z,764.00
2023-05-13T00:53:03.019Z,766.00
2023-05-13T00:54:03.097Z,767.00
2023-05-13T00:55:03.191Z,764.00
2023-05-13T00:56:03.268Z,765.00
2023-05-13T00:57:03.355Z,765.00
2023-05-13T00:58:03.453Z,764.00
2023-05-13T00:59:03.546Z,763.00
2023-05-13T01:00:03.622Z,763.00
2023-05-13T01:01:03.731Z,761.00
2023-05-13T01:02:03.853Z,758.00
2023-05-13T01:03:04.031Z,758.00
2023-05-13T01:04:03.985Z,759.00
2023-05-13T01:05:04.080Z,760.00
2023-05-13T01:06:04.158Z,761.00
2023-05-13T01:07:04.230Z,759.00
2023-05-13T01:08:04.329Z,757.00
2023-05-13T01:09:04.391Z,759.00
2023-05-13T01:10:04.469Z,757.00
2023-05-13T01:11:04.551Z,758.00
2023-05-13T01:12:04.634Z,759.00
2023-05-13T01:13:04.721Z,763.00
2023-05-13T01:14:04.802Z,763.00
2023-05-13T01:15:04.919Z,764.00
2023-05-13T01:16:04.999Z,764.00
2023-05-13T01:17:05.109Z,760.00
2023-05-13T01:18:05.109Z,756.00
2023-05-13T01:19:05.231Z,755.00
2023-05-13T01:20:05.226Z,754.00
2023-05-13T01:21:05.322Z,754.00
2023-05-13T01:22:05.391Z,756.00
2023-05-13T01:23:05.474Z,758.00
2023-05-13T01:24:05.598Z,757.00
2023-05-13T01:25:05.639Z,756.00
2023-05-13T01:26:05.727Z,759.00
2023-05-13T01:27:05.839Z,759.00
2023-05-13T01:28:05.891Z,759.00
2023-05-13T01:29:05.974Z,760.00
2023-05-13T01:30:06.047Z,759.00
2023-05-13T01:31:06.209Z,758.00
2023-05-13T01:32:06.225Z,755.00
2023-05-13T01:33:06.332Z,755.00
2023-05-13T01:34:06.394Z,754.00
2023-05-13T01:35:06.468Z,756.00
2023-05-13T01:36:06.567Z,754.00
2023-05-13T01:37:06.670Z,752.00
2023-05-13T01:38:06.752Z,750.00
2023-05-13T01:39:06.826Z,752.00
2023-05-13T01:40:17.104Z,755.00
2023-05-13T01:41:07.913Z,756.00
2023-05-13T01:42:06.938Z,754.00
2023-05-13T01:43:06.959Z,753.00
2023-05-13T01:44:06.983Z,751.00
2023-05-13T01:45:07.001Z,748.00
2023-05-13T01:46:07.062Z,747.00
2023-05-13T01:47:07.047Z,747.00
2023-05-13T01:48:07.107Z,747.00
2023-05-13T01:49:07.110Z,747.00
2023-05-13T01:50:07.174Z,747.00
2023-05-13T01:51:07.270Z,747.00
2023-05-13T01:52:07.345Z,748.00
2023-05-13T01:53:07.424Z,749.00
2023-05-13T01:54:07.485Z,747.00
2023-05-13T01:55:07.576Z,745.00
2023-05-13T01:56:07.658Z,744.00
2023-05-13T01:57:07.743Z,745.00
2023-05-13T01:58:07.812Z,745.00
2023-05-13T01:59:07.885Z,741.00
2023-05-13T02:00:07.966Z,741.00
2023-05-13T02:01:08.053Z,739.00
2023-05-13T02:02:08.175Z,741.00
2023-05-13T02:03:08.246Z,743.00
2023-05-13T02:04:08.301Z,744.00
2023-05-13T02:05:08.359Z,743.00
2023-05-13T02:06:08.412Z,742.00
2023-05-13T02:07:08.479Z,742.00
2023-05-13T02:08:08.566Z,742.00
2023-05-13T02:09:08.641Z,738.00
2023-05-13T02:10:08.749Z,733.00
2023-05-13T02:11:08.810Z,731.00
2023-05-13T02:12:08.886Z,731.00
2023-05-13T02:13:08.982Z,733.00
2023-05-13T02:14:09.070Z,734.00
2023-05-13T02:15:09.156Z,738.00
2023-05-13T02:16:09.287Z,737.00
2023-05-13T02:17:09.333Z,737.00
2023-05-13T02:18:09.469Z,738.00
2023-05-13T02:19:09.548Z,739.00
2023-05-13T02:20:09.590Z,742.00
2023-05-13T02:21:09.666Z,740.00
2023-05-13T02:22:09.735Z,740.00
2023-05-13T02:23:09.814Z,738.00
2023-05-13T02:24:09.976Z,736.00
2023-05-13T02:25:09.986Z,737.00
2023-05-13T02:26:10.061Z,736.00
2023-05-13T02:27:10.139Z,734.00
2023-05-13T02:28:10.210Z,734.00
2023-05-13T02:29:10.299Z,733.00
2023-05-13T02:30:10.361Z,730.00
2023-05-13T02:31:10.455Z,729.00
2023-05-13T02:32:10.554Z,729.00
2023-05-13T02:33:10.686Z,727.00
2023-05-13T02:34:10.686Z,727.00
2023-05-13T02:35:10.815Z,726.00
2023-05-13T02:36:10.935Z,726.00
2023-05-13T02:37:10.915Z,727.00
2023-05-13T02:38:11.019Z,725.00
2023-05-13T02:39:11.100Z,725.00
2023-05-13T02:40:11.190Z,729.00
2023-05-13T02:41:11.259Z,730.00
2023-05-13T02:42:11.335Z,730.00
2023-05-13T02:43:11.388Z,731.00
2023-05-13T02:44:11.466Z,733.00
2023-05-13T02:45:11.526Z,730.00
2023-05-13T02:46:11.641Z,728.00
2023-05-13T02:47:11.639Z,726.00
2023-05-13T02:48:11.729Z,730.00
2023-05-13T02:49:11.808Z,731.00
2023-05-13T02:50:11.866Z,731.00
2023-05-13T02:51:11.936Z,727.00
2023-05-13T02:52:12.012Z,728.00
2023-05-13T02:53:12.069Z,729.00
2023-05-13T02:54:12.140Z,730.00
2023-05-13T02:55:12.324Z,731.00
2023-05-13T02:56:12.316Z,732.00
2023-05-13T02:57:12.359Z,729.00
2023-05-13T02:58:12.445Z,729.00
2023-05-13T02:59:12.554Z,729.00
2023-05-13T03:00:12.609Z,728.00
2023-05-13T03:01:12.815Z,724.00
2023-05-13T03:02:12.793Z,724.00
2023-05-13T03:03:12.925Z,726.00
2023-05-13T03:04:12.944Z,725.00
2023-05-13T03:05:13.028Z,726.00
2023-05-13T03:06:13.115Z,722.00
2023-05-13T03:07:13.215Z,721.00
2023-05-13T03:08:13.312Z,722.00
2023-05-13T03:09:13.377Z,723.00
2023-05-13T03:10:13.458Z,722.00
2023-05-13T03:11:13.529Z,724.00
2023-05-13T03:12:13.615Z,723.00
2023-05-13T03:13:13.692Z,726.00
2023-05-13T03:14:13.767Z,726.00
2023-05-13T03:15:13.835Z,726.00
2023-05-13T03:16:13.969Z,725.00
2023-05-13T03:17:13.974Z,724.00
2023-05-13T03:18:14.038Z,726.00
2023-05-13T03:19:14.214Z,724.00
2023-05-13T03:20:14.165Z,724.00
2023-05-13T03:21:14.248Z,724.00
2023-05-13T03:22:14.294Z,721.00
2023-05-13T03:23:14.364Z,721.00
2023-05-13T03:24:14.427Z,719.00
2023-05-13T03:25:14.490Z,722.00
2023-05-13T03:26:14.562Z,724.00
2023-05-13T03:27:14.657Z,725.00
2023-05-13T03:28:14.813Z,725.00
2023-05-13T03:29:14.839Z,720.00
2023-05-13T03:30:14.893Z,719.00
2023-05-13T03:31:15.034Z,717.00
2023-05-13T03:32:15.030Z,716.00
2023-05-13T03:33:15.147Z,719.00
2023-05-13T03:34:15.223Z,717.00
2023-05-13T03:35:15.320Z,717.00
2023-05-13T03:36:15.403Z,719.00
2023-05-13T03:37:15.498Z,717.00
2023-05-13T03:38:15.596Z,719.00
2023-05-13T03:39:15.694Z,716.00
2023-05-13T03:40:15.773Z,713.00
2023-05-13T03:41:15.868Z,709.00
2023-05-13T03:42:15.964Z,709.00
2023-05-13T03:43:16.050Z,709.00
2023-05-13T03:44:16.142Z,713.00
2023-05-13T03:45:16.240Z,716.00
2023-05-13T03:46:16.399Z,713.00
2023-05-13T03:47:16.417Z,713.00
2023-05-13T03:48:16.543Z,713.00
2023-05-13T03:49:16.585Z,715.00
2023-05-13T03:50:16.671Z,712.00
2023-05-13T03:51:16.744Z,713.00
2023-05-13T03:52:16.824Z,716.00
2023-05-13T03:53:16.896Z,719.00
2023-05-13T03:54:16.976Z,718.00
2023-05-13T03:55:17.055Z,718.00
2023-05-13T03:56:17.131Z,720.00
2023-05-13T03:57:17.235Z,717.00
2023-05-13T03:58:17.316Z,716.00
2023-05-13T03:59:17.392Z,718.00
2023-05-13T04:00:17.467Z,713.00
2023-05-13T04:01:17.550Z,713.00
2023-05-13T04:02:17.660Z,714.00
2023-05-13T04:03:17.806Z,713.00
2023-05-13T04:04:17.763Z,712.00
2023-05-13T04:05:17.880Z,712.00
2023-05-13T04:06:17.905Z,711.00
2023-05-13T04:07:17.992Z,711.00
2023-05-13T04:08:18.110Z,713.00
2023-05-13T04:09:18.174Z,712.00
2023-05-13T04:10:18.382Z,710.00
2023-05-13T04:11:18.332Z,710.00
2023-05-13T04:12:18.443Z,712.00
2023-05-13T04:13:18.537Z,711.00
2023-05-13T04:14:18.618Z,709.00
2023-05-13T04:15:18.685Z,712.00
2023-05-13T04:16:18.807Z,716.00
2023-05-13T04:17:18.917Z,713.00
2023-05-13T04:18:18.927Z,713.00
2023-05-13T04:19:19.094Z,713.00
2023-05-13T04:20:19.148Z,713.00
2023-05-13T04:21:19.152Z,709.00
2023-05-13T04:22:19.213Z,708.00
2023-05-13T04:23:19.307Z,707.00
2023-05-13T04:24:19.389Z,708.00
2023-05-13T04:25:19.489Z,705.00
2023-05-13T04:26:19.565Z,705.00
2023-05-13T04:27:19.647Z,703.00
2023-05-13T04:28:19.731Z,704.00
2023-05-13T04:29:19.807Z,704.00
2023-05-13T04:30:20.201Z,704.00
2023-05-13T04:31:19.984Z,704.00
2023-05-13T04:32:20.027Z,705.00
2023-05-13T04:33:20.103Z,703.00
2023-05-13T04:34:20.167Z,699.00
2023-05-13T04:35:20.252Z,698.00
2023-05-13T04:36:20.332Z,699.00
2023-05-13T04:37:20.420Z,699.00
2023-05-13T04:38:20.502Z,696.00
2023-05-13T04:39:20.586Z,697.00
2023-05-13T04:40:20.850Z,700.00
2023-05-13T04:41:20.724Z,701.00
2023-05-13T04:42:20.843Z,700.00
2023-05-13T04:43:20.877Z,703.00
2023-05-13T04:44:20.947Z,702.00
2023-05-13T04:45:21.008Z,702.00
2023-05-13T04:46:21.164Z,701.00
2023-05-13T04:47:21.212Z,699.00
2023-05-13T04:48:21.194Z,699.00
2023-05-13T04:49:21.290Z,701.00
2023-05-13T04:50:21.582Z,701.00
2023-05-13T04:51:21.472Z,707.00
2023-05-13T04:52:21.514Z,707.00
2023-05-13T04:53:21.597Z,704.00
2023-05-13T04:54:21.634Z,703.00
2023-05-13T04:55:22.591Z,704.00
2023-05-13T04:56:21.734Z,703.00
2023-05-13T04:57:21.798Z,704.00
2023-05-13T04:58:21.844Z,704.00
2023-05-13T04:59:21.895Z,702.00
2023-05-13T05:00:22.166Z,702.00
2023-05-13T05:01:22.045Z,701.00
2023-05-13T05:02:22.048Z,701.00
2023-05-13T05:03:22.142Z,695.00
2023-05-13T05:04:22.199Z,695.00
2023-05-13T05:05:22.198Z,695.00
2023-05-13T05:06:22.257Z,697.00
2023-05-13T05:07:22.315Z,699.00
2023-05-13T05:08:22.385Z,701.00
2023-05-13T05:09:22.509Z,702.00
2023-05-13T05:10:22.640Z,698.00
2023-05-13T05:11:22.521Z,700.00
2023-05-13T05:12:22.569Z,699.00
2023-05-13T05:13:22.669Z,698.00
2023-05-13T05:14:22.694Z,697.00
2023-05-13T05:15:22.930Z,695.00
2023-05-13T05:16:22.841Z,694.00
2023-05-13T05:17:23.029Z,698.00
2023-05-13T05:18:22.985Z,701.00
2023-05-13T05:19:23.176Z,702.00
2023-05-13T05:20:23.308Z,701.00
2023-05-13T05:21:23.170Z,700.00
2023-05-13T05:22:23.211Z,701.00
2023-05-13T05:23:23.283Z,704.00
2023-05-13T05:24:23.366Z,704.00
2023-05-13T05:25:23.436Z,703.00
2023-05-13T05:26:23.489Z,701.00
2023-05-13T05:27:23.558Z,700.00
2023-05-13T05:28:23.607Z,701.00
2023-05-13T05:29:23.656Z,698.00
2023-05-13T05:30:23.910Z,696.00
2023-05-13T05:31:23.837Z,696.00
2023-05-13T05:32:23.877Z,693.00
2023-05-13T05:33:23.892Z,692.00
2023-05-13T05:34:23.969Z,696.00
2023-05-13T05:35:24.061Z,696.00
2023-05-13T05:36:24.200Z,695.00
2023-05-13T05:37:24.200Z,696.00
2023-05-13T05:38:24.274Z,698.00
2023-05-13T05:39:24.310Z,698.00
2023-05-13T05:40:24.403Z,698.00
2023-05-13T05:41:24.448Z,700.00
2023-05-13T05:42:24.531Z,700.00
2023-05-13T05:43:24.605Z,700.00
2023-05-13T05:44:24.649Z,700.00
2023-05-13T05:45:24.764Z,700.00
2023-05-13T05:46:24.941Z,701.00
2023-05-13T05:47:24.896Z,699.00
2023-05-13T05:48:24.937Z,698.00
2023-05-13T05:49:25.015Z,698.00
2023-05-13T05:50:25.093Z,695.00
2023-05-13T05:51:25.174Z,696.00
2023-05-13T05:52:25.254Z,698.00
2023-05-13T05:53:25.330Z,697.00
2023-05-13T05:54:25.456Z,697.00
2023-05-13T05:55:25.476Z,696.00
2023-05-13T05:56:25.549Z,694.00
2023-05-13T05:57:25.611Z,695.00
2023-05-13T05:58:25.708Z,694.00
2023-05-13T05:59:25.811Z,693.00
2023-05-13T06:00:25.903Z,696.00
2023-05-13T06:01:26.011Z,695.00
2023-05-13T06:02:26.186Z,693.00
2023-05-13T06:03:26.247Z,694.00
2023-05-13T06:04:26.260Z,692.00
2023-05-13T06:05:26.320Z,689.00
2023-05-13T06:06:26.474Z,690.00
2023-05-13T06:07:26.488Z,690.00
2023-05-13T06:08:26.561Z,689.00
2023-05-13T06:09:26.672Z,693.00
2023-05-13T06:10:26.715Z,693.00
2023-05-13T06:11:26.816Z,691.00
2023-05-13T06:12:26.859Z,693.00
2023-05-13T06:13:26.936Z,698.00
2023-05-13T06:14:27.025Z,702.00
2023-05-13T06:15:27.106Z,701.00
2023-05-13T06:16:27.342Z,701.00
2023-05-13T06:17:27.248Z,702.00
2023-05-13T06:18:27.364Z,701.00
2023-05-13T06:19:27.344Z,697.00
2023-05-13T06:20:27.400Z,697.00
2023-05-13T06:21:27.473Z,693.00
2023-05-13T06:22:27.541Z,693.00
2023-05-13T06:23:27.616Z,690.00
2023-05-13T06:24:27.701Z,687.00
2023-05-13T06:25:27.784Z,688.00
2023-05-13T06:26:27.858Z,686.00
2023-05-13T06:27:27.933Z,684.00
2023-05-13T06:28:28.000Z,686.00
2023-05-13T06:29:28.031Z,687.00
2023-05-13T06:30:28.108Z,690.00
2023-05-13T06:31:28.191Z,692.00
2023-05-13T06:32:28.215Z,694.00
2023-05-13T06:33:28.272Z,693.00
2023-05-13T06:34:28.304Z,693.00
2023-05-13T06:35:28.364Z,692.00
2023-05-13T06:36:28.410Z,692.00
2023-05-13T06:37:28.485Z,693.00
2023-05-13T06:38:28.583Z,688.00
2023-05-13T06:39:28.680Z,685.00
2023-05-13T06:40:28.731Z,686.00
2023-05-13T06:41:28.881Z,688.00
2023-05-13T06:42:28.892Z,690.00
2023-05-13T06:43:28.993Z,691.00
2023-05-13T06:44:29.073Z,693.00
2023-05-13T06:45:29.131Z,688.00
2023-05-13T06:46:29.228Z,686.00
2023-05-13T06:47:29.323Z,688.00
2023-05-13T06:48:29.327Z,691.00
2023-05-13T06:49:29.420Z,688.00
2023-05-13T06:50:29.478Z,689.00
2023-05-13T06:51:29.548Z,685.00
2023-05-13T06:52:29.609Z,683.00
2023-05-13T06:53:29.717Z,683.00
2023-05-13T06:54:29.766Z,687.00
2023-05-13T06:55:29.867Z,687.00
2023-05-13T06:56:29.926Z,690.00
2023-05-13T06:57:41.277Z,690.00
2023-05-13T06:58:31.034Z,688.00
2023-05-13T06:59:30.054Z,687.00
2023-05-13T07:00:30.072Z,685.00
2023-05-13T07:01:30.096Z,689.00
2023-05-13T07:02:30.131Z,687.00
2023-05-13T07:03:30.234Z,686.00
2023-05-13T07:04:30.229Z,687.00
2023-05-13T07:05:30.185Z,690.00
2023-05-13T07:06:30.200Z,689.00
2023-05-13T07:07:30.253Z,689.00
2023-05-13T07:08:30.341Z,690.00
2023-05-13T07:09:30.435Z,690.00
2023-05-13T07:10:30.486Z,689.00
2023-05-13T07:11:30.572Z,690.00
2023-05-13T07:12:30.662Z,690.00
2023-05-13T07:13:30.730Z,691.00
2023-05-13T07:14:30.803Z,691.00
2023-05-13T07:15:30.883Z,690.00
2023-05-13T07:16:30.960Z,688.00
2023-05-13T07:17:31.141Z,685.00
2023-05-13T07:18:31.232Z,684.00
2023-05-13T07:19:31.223Z,684.00
2023-05-13T07:20:31.322Z,687.00
2023-05-13T07:21:31.413Z,687.00
2023-05-13T07:22:31.506Z,688.00
2023-05-13T07:23:31.611Z,686.00
2023-05-13T07:24:31.686Z,683.00
2023-05-13T07:25:31.762Z,683.00
2023-05-13T07:26:31.846Z,685.00
2023-05-13T07:27:31.923Z,685.00
2023-05-13T07:28:31.988Z,683.00
2023-05-13T07:29:32.080Z,683.00
2023-05-13T07:30:32.245Z,681.00
2023-05-13T07:31:32.287Z,683.00
2023-05-13T07:32:32.410Z,682.00
2023-05-13T07:33:32.471Z,681.00
2023-05-13T07:34:32.614Z,682.00
2023-05-13T07:35:32.655Z,682.00
2023-05-13T07:36:32.725Z,685.00
2023-05-13T07:37:32.785Z,685.00
2023-05-13T07:38:32.886Z,686.00
2023-05-13T07:39:32.982Z,688.00
2023-05-13T07:40:33.073Z,689.00
2023-05-13T07:41:33.131Z,692.00
2023-05-13T07:42:33.212Z,694.00
2023-05-13T07:43:33.317Z,694.00
2023-05-13T07:44:33.420Z,693.00
2023-05-13T07:45:33.535Z,687.00
2023-05-13T07:46:33.673Z,687.00
2023-05-13T07:47:33.699Z,686.00
2023-05-13T07:48:33.743Z,684.00
2023-05-13T07:49:33.838Z,681.00
2023-05-13T07:50:33.920Z,683.00
2023-05-13T07:51:34.017Z,682.00
2023-05-13T07:52:34.112Z,682.00
2023-05-13T07:53:34.205Z,683.00
2023-05-13T07:54:34.290Z,685.00
2023-05-13T07:55:34.367Z,687.00
2023-05-13T07:56:34.449Z,687.00
2023-05-13T07:57:35.098Z,690.00
2023-05-13T07:58:34.620Z,689.00
2023-05-13T07:59:34.706Z,688.00
2023-05-13T08:00:34.782Z,687.00
2023-05-13T08:01:34.865Z,687.00
2023-05-13T08:02:35.082Z,690.00
2023-05-13T08:03:35.174Z,691.00
2023-05-13T08:04:35.155Z,691.00
2023-05-13T08:05:35.247Z,690.00
2023-05-13T08:06:35.315Z,692.00
2023-05-13T08:07:35.416Z,691.00
2023-05-13T08:08:35.518Z,691.00
2023-05-13T08:09:35.608Z,689.00
2023-05-13T08:10:35.693Z,688.00
2023-05-13T08:11:35.791Z,687.00
2023-05-13T08:12:35.881Z,688.00
2023-05-13T08:13:35.960Z,688.00
2023-05-13T08:14:36.055Z,688.00
2023-05-13T08:15:36.144Z,687.00
2023-05-13T08:16:36.341Z,688.00
2023-05-13T08:17:36.373Z,692.00
2023-05-13T08:18:36.443Z,693.00
2023-05-13T08:19:36.510Z,693.00
2023-05-13T08:20:36.600Z,690.00
2023-05-13T08:21:36.694Z,692.00
2023-05-13T08:22:36.781Z,692.00
2023-05-13T08:23:44.134Z,689.00
2023-05-13T08:24:37.901Z,691.00
2023-05-13T08:25:36.921Z,691.00
2023-05-13T08:26:36.965Z,686.00
2023-05-13T08:27:36.987Z,684.00
2023-05-13T08:28:36.997Z,685.00
2023-05-13T08:29:37.036Z,683.00
2023-05-13T08:30:37.064Z,682.00
2023-05-13T08:31:37.154Z,684.00
2023-05-13T08:32:37.148Z,682.00
2023-05-13T08:33:37.215Z,682.00
2023-05-13T08:34:37.299Z,684.00
2023-05-13T08:35:37.403Z,685.00
2023-05-13T08:36:37.483Z,681.00
2023-05-13T08:37:37.565Z,682.00
2023-05-13T08:38:37.672Z,680.00
2023-05-13T08:39:37.738Z,680.00
2023-05-13T08:40:37.870Z,681.00
2023-05-13T08:41:37.914Z,684.00
2023-05-13T08:42:38.010Z,683.00
2023-05-13T08:43:38.141Z,681.00
2023-05-13T08:44:38.195Z,682.00
2023-05-13T08:45:38.327Z,682.00
2023-05-13T08:46:38.546Z,681.00
2023-05-13T08:47:38.514Z,680.00
2023-05-13T08:48:38.566Z,680.00
2023-05-13T08:49:38.673Z,680.00
2023-05-13T08:50:38.759Z,680.00
2023-05-13T08:51:38.831Z,683.00
2023-05-13T08:52:38.906Z,682.00
2023-05-13T08:53:39.007Z,683.00
2023-05-13T08:54:39.089Z,683.00
2023-05-13T08:55:39.208Z,684.00
2023-05-13T08:56:39.276Z,685.00
2023-05-13T08:57:39.362Z,685.00
2023-05-13T08:58:39.454Z,682.00
2023-05-13T08:59:39.570Z,683.00
2023-05-13T09:00:39.649Z,684.00
2023-05-13T09:01:39.767Z,683.00
2023-05-13T09:02:39.850Z,686.00
2023-05-13T09:03:39.930Z,685.00
2023-05-13T09:04:40.047Z,684.00
2023-05-13T09:05:40.136Z,683.00
2023-05-13T09:06:40.192Z,683.00
2023-05-13T09:07:40.272Z,683.00
2023-05-13T09:08:40.345Z,685.00
2023-05-13T09:09:40.400Z,684.00
2023-05-13T09:10:40.507Z,683.00
2023-05-13T09:11:42.147Z,682.00
2023-05-13T09:12:40.590Z,680.00
2023-05-13T09:13:40.618Z,677.00
2023-05-13T09:14:40.648Z,677.00
2023-05-13T09:15:40.679Z,676.00
2023-05-13T09:16:40.697Z,677.00
2023-05-13T09:17:40.782Z,676.00
2023-05-13T09:18:40.850Z,675.00
2023-05-13T09:19:40.843Z,674.00
2023-05-13T09:20:40.798Z,673.00
2023-05-13T09:21:40.829Z,672.00
2023-05-13T09:22:40.837Z,671.00
2023-05-13T09:23:40.862Z,672.00
2023-05-13T09:24:40.887Z,675.00
2023-05-13T09:25:40.914Z,677.00
2023-05-13T09:26:40.952Z,682.00
2023-05-13T09:27:41.600Z,683.00
2023-05-13T09:28:40.954Z,684.00
2023-05-13T09:29:40.980Z,684.00
2023-05-13T09:30:42.066Z,684.00
2023-05-13T09:31:41.122Z,685.00
2023-05-13T09:32:41.082Z,685.00
2023-05-13T09:33:41.055Z,684.00
2023-05-13T09:34:41.075Z,682.00
2023-05-13T09:35:41.146Z,680.00
2023-05-13T09:36:41.213Z,681.00
2023-05-13T09:37:41.267Z,681.00
2023-05-13T09:38:41.323Z,681.00
2023-05-13T09:39:41.593Z,680.00
2023-05-13T09:40:41.485Z,682.00
2023-05-13T09:41:41.573Z,681.00
2023-05-13T09:42:41.546Z,679.00
2023-05-13T09:43:41.625Z,679.00
2023-05-13T09:44:42.610Z,681.00
2023-05-13T09:45:41.766Z,680.00
2023-05-13T09:46:41.864Z,678.00
2023-05-13T09:47:41.920Z,679.00
2023-05-13T09:48:41.957Z,680.00
2023-05-13T09:49:42.022Z,678.00
2023-05-13T09:50:42.086Z,679.00
2023-05-13T09:51:42.140Z,680.00
2023-05-13T09:52:42.190Z,681.00
2023-05-13T09:53:42.251Z,681.00
2023-05-13T09:54:42.289Z,680.00
2023-05-13T09:55:42.360Z,678.00
2023-05-13T09:56:42.420Z,679.00
2023-05-13T09:57:42.488Z,679.00
2023-05-13T09:58:42.578Z,680.00
2023-05-13T09:59:42.644Z,681.00
2023-05-13T10:00:42.918Z,682.00
2023-05-13T10:01:42.840Z,682.00
2023-05-13T10:02:42.896Z,683.00
2023-05-13T10:03:42.927Z,683.00
2023-05-13T10:04:42.991Z,681.00
2023-05-13T10:05:43.073Z,681.00
2023-05-13T10:06:43.133Z,681.00
2023-05-13T10:07:43.183Z,681.00
2023-05-13T10:08:43.242Z,683.00
2023-05-13T10:09:43.315Z,682.00
2023-05-13T10:10:43.461Z,680.00
2023-05-13T10:11:43.428Z,678.00
2023-05-13T10:12:43.495Z,679.00
2023-05-13T10:13:43.544Z,677.00
2023-05-13T10:14:43.585Z,678.00
2023-05-13T10:15:43.674Z,678.00
2023-05-13T10:16:43.750Z,676.00
2023-05-13T10:17:43.833Z,676.00
2023-05-13T10:18:43.913Z,674.00
2023-05-13T10:19:43.940Z,672.00
2023-05-13T10:20:44.049Z,674.00
2023-05-13T10:21:44.110Z,676.00
2023-05-13T10:22:44.183Z,676.00
2023-05-13T10:23:44.255Z,674.00
2023-05-13T10:24:44.333Z,675.00
2023-05-13T10:25:44.410Z,676.00
2023-05-13T10:26:44.466Z,673.00
2023-05-13T10:27:44.538Z,677.00
2023-05-13T10:28:44.636Z,675.00
2023-05-13T10:29:44.709Z,674.00
2023-05-13T10:30:44.767Z,671.00
2023-05-13T10:31:44.883Z,672.00
2023-05-13T10:32:44.938Z,676.00
2023-05-13T10:33:44.990Z,677.00
2023-05-13T10:34:45.054Z,676.00
2023-05-13T10:35:45.143Z,674.00
2023-05-13T10:36:45.227Z,674.00
2023-05-13T10:37:45.320Z,673.00
2023-05-13T10:38:45.396Z,671.00
2023-05-13T10:39:45.491Z,674.00
2023-05-13T10:40:45.642Z,675.00
2023-05-13T10:41:45.647Z,677.00
2023-05-13T10:42:45.721Z,676.00
2023-05-13T10:43:45.785Z,675.00
2023-05-13T10:44:45.895Z,673.00
2023-05-13T10:45:45.972Z,674.00
2023-05-13T10:46:46.077Z,673.00
2023-05-13T10:47:46.255Z,670.00
2023-05-13T10:48:46.292Z,669.00
2023-05-13T10:49:46.268Z,671.00
2023-05-13T10:50:46.321Z,669.00
2023-05-13T10:51:46.415Z,670.00
2023-05-13T10:52:46.466Z,672.00
2023-05-13T10:53:46.548Z,671.00
2023-05-13T10:54:46.622Z,670.00
2023-05-13T10:55:46.717Z,671.00
2023-05-13T10:56:46.799Z,673.00
2023-05-13T10:57:46.881Z,672.00
2023-05-13T10:58:46.969Z,673.00
2023-05-13T10:59:47.042Z,671.00
2023-05-13T11:00:47.134Z,670.00
2023-05-13T11:01:47.295Z,670.00
2023-05-13T11:02:47.390Z,669.00
2023-05-13T11:03:47.434Z,670.00
2023-05-13T11:04:47.446Z,669.00
2023-05-13T11:05:47.494Z,668.00
2023-05-13T11:06:47.571Z,668.00
2023-05-13T11:07:47.646Z,670.00
2023-05-13T11:08:47.699Z,673.00
2023-05-13T11:09:47.777Z,674.00
2023-05-13T11:10:47.847Z,672.00
2023-05-13T11:11:47.924Z,671.00
2023-05-13T11:12:48.025Z,671.00
2023-05-13T11:13:48.106Z,671.00
2023-05-13T11:14:48.192Z,675.00
2023-05-13T11:15:48.316Z,675.00
2023-05-13T11:16:48.408Z,674.00
2023-05-13T11:17:48.477Z,676.00
2023-05-13T11:18:48.596Z,675.00
2023-05-13T11:19:48.652Z,673.00
2023-05-13T11:20:52.796Z,676.00
2023-05-13T11:21:48.716Z,674.00
2023-05-13T11:22:48.751Z,672.00
2023-05-13T11:23:48.769Z,671.00
2023-05-13T11:24:48.790Z,670.00
2023-05-13T11:25:48.816Z,672.00
2023-05-13T11:26:48.851Z,674.00
2023-05-13T11:27:48.871Z,674.00
2023-05-13T11:28:48.896Z,674.00
2023-05-13T11:29:48.915Z,677.00
2023-05-13T11:30:49.018Z,676.00
2023-05-13T11:31:49.070Z,674.00
2023-05-13T11:32:49.247Z,672.00
2023-05-13T11:33:49.034Z,670.00
2023-05-13T11:34:49.048Z,671.00
2023-05-13T11:35:49.073Z,670.00
2023-05-13T11:36:49.089Z,670.00
2023-05-13T11:37:49.129Z,673.00
2023-05-13T11:38:49.136Z,674.00
2023-05-13T11:39:49.175Z,676.00
2023-05-13T11:40:49.240Z,675.00
2023-05-13T11:41:49.278Z,677.00
2023-05-13T11:42:49.351Z,676.00
2023-05-13T11:43:49.429Z,675.00
2023-05-13T11:44:49.523Z,677.00
2023-05-13T11:45:49.640Z,678.00
2023-05-13T11:46:49.683Z,676.00
2023-05-13T11:47:49.789Z,675.00
2023-05-13T11:48:49.841Z,674.00
2023-05-13T11:49:49.920Z,671.00
2023-05-13T11:50:50.016Z,674.00
2023-05-13T11:51:50.082Z,674.00
2023-05-13T11:52:50.162Z,675.00
2023-05-13T11:53:50.238Z,672.00
2023-05-13T11:54:50.328Z,673.00
2023-05-13T11:57:09.330Z,681.00
2023-05-13T11:58:09.336Z,679.00
2023-05-13T11:59:09.286Z,678.00
2023-05-13T12:00:09.279Z,678.00
2023-05-13T12:01:09.257Z,679.00
2023-05-13T12:02:09.256Z,676.00
2023-05-13T12:03:09.279Z,676.00
2023-05-13T12:04:09.208Z,676.00
2023-05-13T12:05:09.211Z,677.00
2023-05-13T12:06:09.160Z,680.00
2023-05-13T12:07:09.135Z,678.00
2023-05-13T12:08:09.118Z,679.00
2023-05-13T12:09:09.665Z,681.00
2023-05-13T12:10:09.091Z,680.00
2023-05-13T12:11:09.056Z,679.00
2023-05-13T12:12:09.029Z,678.00
2023-05-13T12:13:09.025Z,680.00
2023-05-13T12:14:08.985Z,682.00
2023-05-13T12:15:08.972Z,681.00
2023-05-13T12:16:09.020Z,683.00
2023-05-13T12:17:08.949Z,681.00
2023-05-13T12:18:08.952Z,680.00
2023-05-13T12:19:08.980Z,681.00
2023-05-13T12:20:08.870Z,681.00
2023-05-13T12:21:08.846Z,682.00
2023-05-13T12:22:08.836Z,686.00
2023-05-13T12:23:08.801Z,685.00
2023-05-13T12:24:08.776Z,683.00
2023-05-13T12:25:08.745Z,685.00
2023-05-13T12:26:08.723Z,683.00
2023-05-13T12:27:10.823Z,683.00
2023-05-13T12:28:08.670Z,682.00
2023-05-13T12:29:08.663Z,683.00
2023-05-13T12:30:08.615Z,682.00
2023-05-13T12:31:08.647Z,684.00